Peney — HOGK — position and weather

sailwx.info

Track history (hours):
 
Tides and Currents Weather Stations Pressure Air Temp Water Temp Dewpoint Dewpoint Depression Visibility Wind Speed Wind Dir Waves Ship Positions

Peney

Last reported at 2016-Sep-10 19:16 UTC. Time now 2016-Sep-25 20:49 UTC.
Position N 30°38' E 123°20'.
Warning: this ship's position is 15 days out of date.

Length 225 m; draft 7.4 m.

Type: Cargo ship. MMSI: 374921000.

Date/timePositionNaut miles runAvg speedWind from/ knotsBaromVisibWave heightAir tempDewpointWater temp
2016-Sep-10 19:16N 30°38' E 123°20'5313.5
2016-Sep-10 15:21N 31°06' E 122°27'1012.6
2016-Sep-10 14:33N 31°08' E 122°16'2914.3
2016-Sep-10 12:31N 31°19' E 121°44'1111.7
2016-Sep-10 11:33N 31°24' E 121°33'9 9.4
2016-Sep-10 10:33N 31°30' E 121°24'1312.6
2016-Sep-10 09:33N 31°39' E 121°13'1313.0
2016-Sep-10 08:33N 31°46' E 121°01'1311.7
2016-Sep-10 07:28N 31°57' E 120°52'1111.5
2016-Sep-10 06:31N 31°60' E 120°39'1313.5
2016-Sep-10 05:33N 32°01' E 120°24'1312.5
2016-Sep-10 04:33N 31°56' E 120°11'1110.7
2016-Sep-10 03:33N 31°60' E 119°59'0 0.0
2016-Sep-10 01:33N 31°60' E 119°59'0 0.0
2016-Sep-10 00:33N 31°60' E 119°59'0 0.0
2016-Sep-09 23:24N 31°60' E 119°59'0 0.0
2016-Sep-09 22:24N 31°60' E 119°59'0 0.0
2016-Sep-09 21:06N 31°60' E 119°59'0 0.0
2016-Sep-09 20:31N 31°60' E 119°59'0 0.0
2016-Sep-09 19:30N 31°60' E 119°59'0 0.0
2016-Sep-09 18:33N 31°60' E 119°59'0 0.0
2016-Sep-09 17:33N 31°60' E 119°59'0 0.0
2016-Sep-09 16:30N 31°60' E 119°59'0 0.0
2016-Sep-09 14:30N 31°60' E 119°59'0 0.0
2016-Sep-09 13:18N 31°60' E 119°59'13 0.4
2016-Sep-08 08:23N 31°56' E 120°13'7 8.9
2016-Sep-08 07:33N 31°59' E 120°21'9 9.3
2016-Sep-08 06:33N 32°01' E 120°32'20 8.3
2016-Sep-08 04:10N 31°54' E 120°53'710.0
2016-Sep-08 03:26N 31°47' E 120°57'9 9.6
2016-Sep-08 02:33N 31°44' E 121°06'1110.8
2016-Sep-08 01:34N 31°37' E 121°16'2 2.4
2016-Sep-08 00:32N 31°36' E 121°18'0 0.0
2016-Sep-07 23:32N 31°36' E 121°18'0 0.1
2016-Sep-07 22:32N 31°36' E 121°18'0 0.2
2016-Sep-07 21:29N 31°36' E 121°18'0 0.1
2016-Sep-07 20:29N 31°36' E 121°18'0 0.0
2016-Sep-07 19:29N 31°36' E 121°18'0 0.3
2016-Sep-07 18:29N 31°36' E 121°18'0 0.0
2016-Sep-07 17:32N 31°36' E 121°18'0 0.0
2016-Sep-07 16:32N 31°36' E 121°18'0 0.0
2016-Sep-07 15:32N 31°36' E 121°18'0 0.0
2016-Sep-07 14:32N 31°36' E 121°18'0 0.0
2016-Sep-07 13:29N 31°36' E 121°18'0 0.0
2016-Sep-07 12:32N 31°36' E 121°18'0 0.0
2016-Sep-07 11:18N 31°36' E 121°18'2 2.2
2016-Sep-07 10:33N 31°34' E 121°19'1211.6
2016-Sep-07 09:33N 31°26' E 121°29'8 7.5
2016-Sep-07 08:33N 31°22' E 121°37'11 9.5
2016-Sep-07 07:25N 31°18' E 121°48'105 4.6
2016-Sep-06 08:29N 29°40' E 122°36'1112.3
2016-Sep-06 07:33N 29°42' E 122°23'1212.1
2016-Sep-06 06:33N 29°50' E 122°12'16 8.0
2016-Sep-06 04:33N 30°01' E 121°59'1 0.4
2016-Sep-06 03:16N 30°02' E 121°59'0 0.0
2016-Sep-06 02:28N 30°02' E 121°59'0 0.0
2016-Sep-06 01:28N 30°02' E 121°59'0 0.0
2016-Sep-06 00:28N 30°02' E 121°59'0 0.0
2016-Sep-05 22:04N 30°02' E 121°59'0 0.0
2016-Sep-05 20:16N 30°02' E 121°59'0 0.0
2016-Sep-05 19:16N 30°02' E 121°59'0 0.0
2016-Sep-05 17:28N 30°02' E 121°59'0 0.0
2016-Sep-05 15:28N 30°02' E 121°59'0 0.0
2016-Sep-05 13:22N 30°02' E 121°59'0 0.0
2016-Sep-05 12:10N 30°02' E 121°59'0 0.0
2016-Sep-05 08:16N 30°02' E 121°59'0 0.0
2016-Sep-05 07:22N 30°02' E 121°59'0 0.0
2016-Sep-05 06:22N 30°02' E 121°59'5 2.9
2016-Sep-05 04:33N 29°56' E 122°00'1212.2
2016-Sep-05 03:34N 29°50' E 122°13'10 9.9
2016-Sep-05 02:33N 29°45' E 122°23'0 0.1
2016-Sep-05 00:24N 29°45' E 122°22'0 0.0
2016-Sep-04 17:06N 29°45' E 122°23'0 0.1
2016-Sep-04 16:18N 29°45' E 122°23'0 0.1
2016-Sep-04 13:18N 29°45' E 122°22'0 0.1
2016-Sep-04 10:12N 29°45' E 122°23'0 0.2
2016-Sep-04 09:30N 29°45' E 122°23'0 0.4
2016-Sep-04 08:25N 29°45' E 122°23'1 0.9
2016-Sep-04 07:33N 29°44' E 122°24'6 5.9
2016-Sep-04 06:33N 29°42' E 122°30'43712.1
2016-Sep-02 18:32N 22°47' E 119°55'1211.9
2016-Sep-02 17:33N 22°36' E 119°55'  
Track history (hours):
 
Tides and Currents Weather Stations Pressure Air Temp Water Temp Dewpoint Dewpoint Depression Visibility Wind Speed Wind Dir Waves Ship Positions

Peney

Last reported at 2016-Sep-10 19:16 UTC. Time now 2016-Sep-25 20:49 UTC.
Position N 30°38' E 123°20'.
Warning: this ship's position is 15 days out of date.

Length 225 m; draft 7.4 m.

Type: Cargo ship. MMSI: 374921000.

Date/timePositionNaut miles runAvg speedWind from/ knotsBaromVisibWave heightAir tempDewpointWater temp
2016-Sep-10 19:16N 30°38' E 123°20'5313.5
2016-Sep-10 15:21N 31°06' E 122°27'1012.6
2016-Sep-10 14:33N 31°08' E 122°16'2914.3
2016-Sep-10 12:31N 31°19' E 121°44'1111.7
2016-Sep-10 11:33N 31°24' E 121°33'9 9.4
2016-Sep-10 10:33N 31°30' E 121°24'1312.6
2016-Sep-10 09:33N 31°39' E 121°13'1313.0
2016-Sep-10 08:33N 31°46' E 121°01'1311.7
2016-Sep-10 07:28N 31°57' E 120°52'1111.5
2016-Sep-10 06:31N 31°60' E 120°39'1313.5
2016-Sep-10 05:33N 32°01' E 120°24'1312.5
2016-Sep-10 04:33N 31°56' E 120°11'1110.7
2016-Sep-10 03:33N 31°60' E 119°59'0 0.0
2016-Sep-10 01:33N 31°60' E 119°59'0 0.0
2016-Sep-10 00:33N 31°60' E 119°59'0 0.0
2016-Sep-09 23:24N 31°60' E 119°59'0 0.0
2016-Sep-09 22:24N 31°60' E 119°59'0 0.0
2016-Sep-09 21:06N 31°60' E 119°59'0 0.0
2016-Sep-09 20:31N 31°60' E 119°59'0 0.0
2016-Sep-09 19:30N 31°60' E 119°59'0 0.0
2016-Sep-09 18:33N 31°60' E 119°59'0 0.0
2016-Sep-09 17:33N 31°60' E 119°59'0 0.0
2016-Sep-09 16:30N 31°60' E 119°59'0 0.0
2016-Sep-09 14:30N 31°60' E 119°59'0 0.0
2016-Sep-09 13:18N 31°60' E 119°59'13 0.4
2016-Sep-08 08:23N 31°56' E 120°13'7 8.9
2016-Sep-08 07:33N 31°59' E 120°21'9 9.3
2016-Sep-08 06:33N 32°01' E 120°32'20 8.3
2016-Sep-08 04:10N 31°54' E 120°53'710.0
2016-Sep-08 03:26N 31°47' E 120°57'9 9.6
2016-Sep-08 02:33N 31°44' E 121°06'1110.8
2016-Sep-08 01:34N 31°37' E 121°16'2 2.4
2016-Sep-08 00:32N 31°36' E 121°18'0 0.0
2016-Sep-07 23:32N 31°36' E 121°18'0 0.1
2016-Sep-07 22:32N 31°36' E 121°18'0 0.2
2016-Sep-07 21:29N 31°36' E 121°18'0 0.1
2016-Sep-07 20:29N 31°36' E 121°18'0 0.0
2016-Sep-07 19:29N 31°36' E 121°18'0 0.3
2016-Sep-07 18:29N 31°36' E 121°18'0 0.0
2016-Sep-07 17:32N 31°36' E 121°18'0 0.0
2016-Sep-07 16:32N 31°36' E 121°18'0 0.0
2016-Sep-07 15:32N 31°36' E 121°18'0 0.0
2016-Sep-07 14:32N 31°36' E 121°18'0 0.0
2016-Sep-07 13:29N 31°36' E 121°18'0 0.0
2016-Sep-07 12:32N 31°36' E 121°18'0 0.0
2016-Sep-07 11:18N 31°36' E 121°18'2 2.2
2016-Sep-07 10:33N 31°34' E 121°19'1211.6
2016-Sep-07 09:33N 31°26' E 121°29'8 7.5
2016-Sep-07 08:33N 31°22' E 121°37'11 9.5
2016-Sep-07 07:25N 31°18' E 121°48'105 4.6
2016-Sep-06 08:29N 29°40' E 122°36'1112.3
2016-Sep-06 07:33N 29°42' E 122°23'1212.1
2016-Sep-06 06:33N 29°50' E 122°12'16 8.0
2016-Sep-06 04:33N 30°01' E 121°59'1 0.4
2016-Sep-06 03:16N 30°02' E 121°59'0 0.0
2016-Sep-06 02:28N 30°02' E 121°59'0 0.0
2016-Sep-06 01:28N 30°02' E 121°59'0 0.0
2016-Sep-06 00:28N 30°02' E 121°59'0 0.0
2016-Sep-05 22:04N 30°02' E 121°59'0 0.0
2016-Sep-05 20:16N 30°02' E 121°59'0 0.0
2016-Sep-05 19:16N 30°02' E 121°59'0 0.0
2016-Sep-05 17:28N 30°02' E 121°59'0 0.0
2016-Sep-05 15:28N 30°02' E 121°59'0 0.0
2016-Sep-05 13:22N 30°02' E 121°59'0 0.0
2016-Sep-05 12:10N 30°02' E 121°59'0 0.0
2016-Sep-05 08:16N 30°02' E 121°59'0 0.0
2016-Sep-05 07:22N 30°02' E 121°59'0 0.0
2016-Sep-05 06:22N 30°02' E 121°59'5 2.9
2016-Sep-05 04:33N 29°56' E 122°00'1212.2
2016-Sep-05 03:34N 29°50' E 122°13'10 9.9
2016-Sep-05 02:33N 29°45' E 122°23'0 0.1
2016-Sep-05 00:24N 29°45' E 122°22'0 0.0
2016-Sep-04 17:06N 29°45' E 122°23'0 0.1
2016-Sep-04 16:18N 29°45' E 122°23'0 0.1
2016-Sep-04 13:18N 29°45' E 122°22'0 0.1
2016-Sep-04 10:12N 29°45' E 122°23'0 0.2
2016-Sep-04 09:30N 29°45' E 122°23'0 0.4
2016-Sep-04 08:25N 29°45' E 122°23'1 0.9
2016-Sep-04 07:33N 29°44' E 122°24'6 5.9
2016-Sep-04 06:33N 29°42' E 122°30'43712.1
2016-Sep-02 18:32N 22°47' E 119°55'1211.9
2016-Sep-02 17:33N 22°36' E 119°55'  

Dump ship's entire track history